Time;durP1;ratioP1;P1;durP2;ratioP2;P2;SDS_P1;SDS_P2;PMS_P1;PMS_P2;Temp;Humidity;BMP_temperature;BMP_pressure;BME280_temperature;BME280_humidity;BME280_pressure;Samples;Min_cycle;Max_cycle;Signal;HPM_P1;HPM_P2
2023/07/27 00:00:34;;;;;;;4.13;2.40;;;12.60;31.10;;;;;;4957059;29;20422;-72
2023/07/27 00:03:01;;;;;;;3.90;2.77;;;12.60;31.90;;;;;;4956579;28;20296;-72
2023/07/27 00:05:27;;;;;;;4.50;2.37;;;12.60;31.70;;;;;;4955350;29;20213;-71
2023/07/27 00:07:53;;;;;;;4.23;3.13;;;12.60;31.60;;;;;;4956801;29;20421;-72
2023/07/27 00:10:24;;;;;;;4.07;2.60;;;12.60;31.10;;;;;;4957485;28;20577;-72
2023/07/27 00:12:50;;;;;;;3.97;2.17;;;12.60;32.20;;;;;;4955729;29;20496;-72
2023/07/27 00:15:16;;;;;;;3.80;2.30;;;12.50;31.40;;;;;;4955706;29;20468;-71
2023/07/27 00:17:41;;;;;;;5.07;3.27;;;12.50;31.90;;;;;;4955727;29;20484;-71
2023/07/27 00:20:07;;;;;;;3.50;3.00;;;12.40;31.60;;;;;;4957092;29;20832;-71
2023/07/27 00:22:33;;;;;;;4.13;2.60;;;12.40;30.60;;;;;;4956801;28;20679;-71
2023/07/27 00:24:58;;;;;;;3.17;2.20;;;12.40;30.90;;;;;;4956827;28;20425;-72
2023/07/27 00:27:24;;;;;;;4.00;2.53;;;12.40;30.60;;;;;;4956760;28;20181;-73
2023/07/27 00:29:52;;;;;;;3.77;2.70;;;12.30;32.00;;;;;;4956250;28;20208;-72
2023/07/27 00:32:18;;;;;;;4.73;2.70;;;12.30;33.00;;;;;;4955059;28;20200;-72
2023/07/27 00:34:43;;;;;;;3.30;3.00;;;12.30;32.80;;;;;;4956168;29;20506;-73
2023/07/27 00:37:09;;;;;;;3.93;2.40;;;12.20;32.90;;;;;;4956312;28;20181;-73
2023/07/27 00:39:35;;;;;;;3.10;2.43;;;12.30;33.00;;;;;;4956415;29;20244;-72
2023/07/27 00:42:00;;;;;;;3.33;2.70;;;12.30;33.00;;;;;;4955960;28;20679;-72
2023/07/27 00:44:26;;;;;;;3.20;2.20;;;12.30;33.00;;;;;;4956229;29;20422;-72
2023/07/27 00:46:52;;;;;;;5.17;2.33;;;12.30;33.70;;;;;;4956315;29;20186;-73
2023/07/27 00:49:19;;;;;;;3.60;2.17;;;12.30;33.00;;;;;;4956026;28;20206;-72
2023/07/27 00:51:45;;;;;;;3.73;2.80;;;12.40;33.50;;;;;;4954680;29;20443;-72
2023/07/27 00:54:12;;;;;;;4.27;2.50;;;12.30;33.00;;;;;;4956137;28;20429;-73
2023/07/27 00:56:39;;;;;;;3.60;2.83;;;12.40;33.10;;;;;;4956309;28;20440;-73
2023/07/27 00:59:05;;;;;;;3.13;2.20;;;12.40;33.10;;;;;;4955854;29;20437;-71
2023/07/27 01:01:31;;;;;;;4.43;2.53;;;12.30;33.00;;;;;;4955634;28;20798;-72
2023/07/27 01:03:57;;;;;;;7.00;2.67;;;12.30;33.00;;;;;;4956768;28;20422;-71
2023/07/27 01:06:23;;;;;;;5.10;2.53;;;12.30;33.00;;;;;;4956423;29;20430;-72
2023/07/27 01:08:53;;;;;;;5.20;3.67;;;12.30;33.00;;;;;;4956071;28;20208;-71
2023/07/27 01:11:37;;;;;;;6.20;2.70;;;12.20;32.90;;;;;;4955721;28;20433;-71
2023/07/27 01:14:12;;;;;;;3.37;2.53;;;12.20;31.70;;;;;;4955981;29;20419;-70
2023/07/27 01:16:48;;;;;;;3.23;2.33;;;12.20;32.00;;;;;;4955314;28;20418;-71
2023/07/27 01:19:38;;;;;;;3.50;2.30;;;12.20;31.10;;;;;;4954196;28;20495;-71
2023/07/27 01:22:26;;;;;;;3.73;2.90;;;12.20;30.90;;;;;;4955183;28;20880;-71
2023/07/27 01:25:19;;;;;;;3.13;2.40;;;12.10;31.60;;;;;;4953777;29;20433;-71
2023/07/27 01:27:44;;;;;;;2.93;1.97;;;12.10;31.30;;;;;;4953823;28;20430;-71
2023/07/27 01:30:28;;;;;;;2.80;2.00;;;12.10;31.70;;;;;;4954970;28;20472;-71
2023/07/27 01:33:05;;;;;;;2.60;1.57;;;12.10;30.70;;;;;;4954863;28;20232;-71
2023/07/27 01:35:46;;;;;;;5.33;2.47;;;12.10;30.20;;;;;;4955007;28;20444;-70
2023/07/27 01:38:12;;;;;;;3.93;2.13;;;12.10;29.00;;;;;;4955308;28;20414;-71
2023/07/27 01:40:40;;;;;;;2.60;1.87;;;12.20;28.70;;;;;;4955042;28;20425;-71
2023/07/27 01:43:06;;;;;;;3.53;2.40;;;12.30;28.60;;;;;;4954201;28;20445;-72
2023/07/27 01:45:32;;;;;;;3.60;2.30;;;12.30;28.30;;;;;;4954686;28;20426;-72
2023/07/27 01:47:59;;;;;;;3.00;2.23;;;12.30;28.30;;;;;;4954788;29;20415;-72
2023/07/27 01:50:25;;;;;;;2.60;1.83;;;12.30;28.30;;;;;;4954621;28;20256;-72
2023/07/27 01:52:53;;;;;;;3.63;2.33;;;12.30;28.90;;;;;;4953120;28;20437;-72
2023/07/27 01:55:22;;;;;;;3.43;2.00;;;12.20;29.30;;;;;;4969406;28;20433;-71
2023/07/27 01:57:49;;;;;;;3.53;2.43;;;12.20;29.00;;;;;;4953369;29;20515;-72
2023/07/27 02:00:15;;;;;;;3.67;2.17;;;12.20;29.10;;;;;;4954360;28;20457;-72
2023/07/27 02:02:42;;;;;;;3.50;2.67;;;12.20;29.30;;;;;;4954244;28;20438;-72
2023/07/27 02:05:09;;;;;;;3.57;2.10;;;12.20;29.70;;;;;;4954579;28;20437;-70
2023/07/27 02:07:35;;;;;;;3.07;2.30;;;12.20;29.50;;;;;;4953238;29;20520;-72
2023/07/27 02:10:01;;;;;;;3.50;2.83;;;12.20;29.50;;;;;;4953212;29;20476;-72
2023/07/27 02:12:34;;;;;;;5.67;2.27;;;12.20;28.90;;;;;;4954426;29;20461;-72
2023/07/27 02:15:13;;;;;;;6.30;2.20;;;12.20;29.00;;;;;;4953893;29;20676;-72
2023/07/27 02:17:42;;;;;;;4.00;1.93;;;12.30;28.20;;;;;;4954688;28;20470;-71
2023/07/27 02:20:12;;;;;;;2.93;2.10;;;12.30;28.20;;;;;;4954459;28;20852;-71
2023/07/27 02:22:40;;;;;;;5.93;2.50;;;12.30;27.90;;;;;;4954034;28;20539;-71
2023/07/27 02:25:06;;;;;;;4.63;2.37;;;12.30;28.30;;;;;;4954139;28;20417;-71
2023/07/27 02:27:32;;;;;;;4.87;2.70;;;12.30;28.30;;;;;;4954203;28;20426;-70
2023/07/27 02:29:58;;;;;;;2.90;2.30;;;12.30;28.40;;;;;;4954085;28;20477;-71
2023/07/27 02:32:23;;;;;;;3.93;2.37;;;12.40;28.40;;;;;;4953888;28;20445;-71
2023/07/27 02:34:49;;;;;;;4.07;2.43;;;12.30;28.80;;;;;;4953861;28;20564;-71
2023/07/27 02:37:14;;;;;;;3.17;2.20;;;12.30;28.90;;;;;;4954187;28;20644;-72
2023/07/27 02:39:40;;;;;;;2.60;1.73;;;12.20;29.20;;;;;;4954045;29;20357;-72
2023/07/27 02:42:06;;;;;;;2.73;2.03;;;12.20;29.80;;;;;;4953806;29;20202;-72
2023/07/27 02:44:31;;;;;;;2.77;2.03;;;12.30;30.40;;;;;;4954060;29;20261;-72
2023/07/27 02:46:57;;;;;;;3.30;2.40;;;12.30;29.40;;;;;;4954008;28;20312;-72
2023/07/27 02:49:25;;;;;;;4.30;2.97;;;12.40;29.50;;;;;;4953785;29;20262;-71
2023/07/27 02:51:51;;;;;;;3.30;2.10;;;12.50;29.40;;;;;;4953522;29;20205;-72
2023/07/27 02:54:17;;;;;;;2.90;2.00;;;12.60;28.20;;;;;;4951946;28;20427;-71
2023/07/27 02:56:42;;;;;;;2.63;1.70;;;12.70;28.30;;;;;;4952683;29;20182;-71
2023/07/27 02:59:08;;;;;;;2.80;2.50;;;12.80;28.60;;;;;;4943600;29;20210;-71
2023/07/27 03:01:33;;;;;;;3.43;2.73;;;12.90;27.30;;;;;;4934145;29;20202;-71
2023/07/27 03:03:59;;;;;;;2.70;1.97;;;13.00;27.20;;;;;;4934677;29;20692;-72
2023/07/27 03:06:24;;;;;;;2.60;2.00;;;13.00;27.70;;;;;;4934569;29;20190;-72
2023/07/27 03:08:50;;;;;;;3.93;2.57;;;13.10;26.20;;;;;;4934915;29;20219;-72
2023/07/27 03:11:16;;;;;;;3.33;2.50;;;13.10;25.50;;;;;;4934236;29;20187;-72
2023/07/27 03:13:41;;;;;;;3.47;2.60;;;13.20;25.00;;;;;;4934209;29;20192;-71
2023/07/27 03:16:07;;;;;;;3.20;2.30;;;13.30;24.90;;;;;;4934421;29;20264;-71
2023/07/27 03:18:33;;;;;;;2.93;1.97;;;13.30;23.60;;;;;;4934643;29;20217;-72
2023/07/27 03:21:05;;;;;;;4.47;2.73;;;13.30;23.80;;;;;;4934734;29;20182;-72
2023/07/27 03:23:31;;;;;;;3.23;1.80;;;13.40;23.40;;;;;;4934306;29;20480;-72
2023/07/27 03:25:56;;;;;;;3.47;1.90;;;13.50;23.20;;;;;;4934694;29;20791;-72
2023/07/27 03:28:22;;;;;;;3.70;2.67;;;13.50;23.10;;;;;;4933252;29;20470;-72
2023/07/27 03:30:47;;;;;;;3.87;2.13;;;13.60;21.90;;;;;;4932992;29;20935;-71
2023/07/27 03:33:13;;;;;;;3.80;2.20;;;13.70;20.90;;;;;;4932741;29;20694;-72
2023/07/27 03:35:38;;;;;;;5.57;2.43;;;13.70;20.30;;;;;;4934126;29;20700;-73
2023/07/27 03:38:04;;;;;;;2.70;1.90;;;13.70;19.10;;;;;;4934416;29;20192;-72
2023/07/27 03:40:30;;;;;;;4.23;2.80;;;13.70;16.60;;;;;;4934213;29;20188;-72
2023/07/27 03:42:55;;;;;;;4.73;3.20;;;13.70;17.30;;;;;;4933993;29;20300;-72
2023/07/27 03:45:21;;;;;;;3.50;2.70;;;13.70;16.60;;;;;;4934212;29;20185;-72
2023/07/27 03:47:47;;;;;;;8.43;3.70;;;13.70;17.70;;;;;;4934275;29;20704;-72
2023/07/27 03:50:13;;;;;;;4.80;3.80;;;13.50;19.00;;;;;;4932380;29;20326;-72
2023/07/27 03:52:39;;;;;;;4.97;4.37;;;13.30;20.30;;;;;;4948211;28;20207;-71
2023/07/27 03:55:05;;;;;;;4.40;3.27;;;13.20;21.90;;;;;;4934335;29;20419;-72
2023/07/27 03:57:31;;;;;;;4.93;3.53;;;13.20;22.10;;;;;;4934215;29;20917;-72
2023/07/27 03:59:58;;;;;;;4.53;2.77;;;13.10;22.70;;;;;;4932864;29;20447;-72
2023/07/27 04:02:25;;;;;;;5.30;3.17;;;13.00;22.80;;;;;;4933816;29;20441;-72
2023/07/27 04:04:51;;;;;;;5.40;3.60;;;13.00;22.70;;;;;;4934423;29;20515;-72
2023/07/27 04:07:18;;;;;;;3.40;2.80;;;13.00;23.30;;;;;;4937867;29;20513;-72
2023/07/27 04:09:43;;;;;;;3.30;2.70;;;13.00;24.10;;;;;;4937542;29;20501;-72
2023/07/27 04:12:09;;;;;;;4.10;3.43;;;13.00;24.00;;;;;;4937336;29;20471;-71
2023/07/27 04:14:35;;;;;;;4.47;2.90;;;13.00;24.60;;;;;;4937595;29;20637;-72
2023/07/27 04:17:00;;;;;;;6.07;3.63;;;13.10;24.50;;;;;;4937569;29;20295;-72
2023/07/27 04:19:26;;;;;;;3.10;2.50;;;13.10;24.70;;;;;;4937432;29;20211;-72
2023/07/27 04:21:51;;;;;;;13.10;3.70;;;13.10;24.70;;;;;;4936990;29;20268;-71
2023/07/27 04:24:17;;;;;;;4.07;2.70;;;13.10;24.70;;;;;;4937259;29;20189;-72
2023/07/27 04:26:42;;;;;;;4.23;3.27;;;13.20;24.80;;;;;;4937329;29;20615;-71
2023/07/27 04:29:08;;;;;;;4.80;3.07;;;13.20;24.80;;;;;;4937123;29;20215;-72
2023/07/27 04:31:33;;;;;;;4.33;3.53;;;13.30;24.60;;;;;;4936641;29;20232;-72
2023/07/27 04:33:59;;;;;;;4.33;3.53;;;13.50;24.00;;;;;;4935540;29;20576;-72
2023/07/27 04:36:27;;;;;;;5.20;3.93;;;13.50;23.80;;;;;;4937342;29;20180;-72
2023/07/27 04:38:53;;;;;;;5.03;3.40;;;13.60;24.10;;;;;;4937099;29;20190;-71
2023/07/27 04:41:18;;;;;;;4.10;3.33;;;13.70;23.90;;;;;;4936874;29;20861;-71
2023/07/27 04:43:44;;;;;;;2.90;2.40;;;13.70;23.90;;;;;;4936312;29;20199;-72
2023/07/27 04:46:10;;;;;;;4.10;2.70;;;13.90;23.30;;;;;;4936873;29;20179;-72
2023/07/27 04:48:35;;;;;;;4.00;2.57;;;14.00;23.50;;;;;;4936847;29;20191;-71
2023/07/27 04:51:01;;;;;;;3.63;2.03;;;14.20;22.00;;;;;;4936521;29;20218;-72
2023/07/27 04:53:26;;;;;;;3.90;2.30;;;14.30;20.60;;;;;;4936350;29;20186;-72
2023/07/27 04:55:52;;;;;;;4.50;2.27;;;14.50;21.00;;;;;;4936524;29;20232;-71
2023/07/27 04:58:18;;;;;;;3.77;2.07;;;14.70;19.30;;;;;;4936206;29;20198;-72
2023/07/27 05:00:43;;;;;;;4.63;2.20;;;14.90;18.10;;;;;;4936440;29;20194;-71
2023/07/27 05:03:09;;;;;;;3.93;2.23;;;15.10;18.70;;;;;;4936216;29;20202;-70
2023/07/27 05:05:42;;;;;;;2.83;1.83;;;15.30;17.70;;;;;;4936410;29;20191;-71
2023/07/27 05:08:07;;;;;;;2.80;2.10;;;15.40;16.50;;;;;;4936396;29;20265;-72
2023/07/27 05:10:33;;;;;;;4.27;2.40;;;15.60;20.10;;;;;;4936462;29;20609;-73
2023/07/27 05:12:58;;;;;;;10.30;2.00;;;15.70;18.60;;;;;;4935731;29;20297;-72
2023/07/27 05:15:24;;;;;;;4.13;2.50;;;15.90;18.10;;;;;;4935968;29;20174;-71
2023/07/27 05:17:49;;;;;;;2.97;1.80;;;16.10;15.90;;;;;;4935116;29;20261;-71
2023/07/27 05:20:15;;;;;;;3.33;2.20;;;16.20;14.40;;;;;;4935850;29;20218;-70
2023/07/27 05:22:42;;;;;;;3.80;2.73;;;16.30;12.80;;;;;;4935491;29;20257;-71
2023/07/27 05:25:10;;;;;;;3.67;2.30;;;16.40;13.00;;;;;;4957494;28;20195;-71
2023/07/27 05:27:36;;;;;;;4.40;2.83;;;16.50;11.90;;;;;;4974299;28;20507;-71
2023/07/27 05:30:02;;;;;;;3.63;2.83;;;16.30;10.60;;;;;;4974126;28;20861;-72
2023/07/27 05:32:27;;;;;;;4.80;3.10;;;16.10;12.00;;;;;;4973763;28;20679;-72
2023/07/27 05:34:54;;;;;;;6.53;3.47;;;15.80;12.80;;;;;;4973970;28;20427;-70
2023/07/27 05:37:20;;;;;;;5.03;3.33;;;15.80;13.60;;;;;;4974141;28;20173;-70
2023/07/27 05:39:46;;;;;;;7.03;4.20;;;15.80;13.60;;;;;;4973973;28;20409;-70
2023/07/27 05:42:11;;;;;;;3.87;2.60;;;15.70;14.20;;;;;;4973553;28;20503;-70
2023/07/27 05:44:37;;;;;;;3.13;2.70;;;15.70;13.70;;;;;;4973884;28;20644;-70
2023/07/27 05:47:03;;;;;;;6.53;2.40;;;15.90;13.30;;;;;;4973687;28;20177;-70
2023/07/27 05:49:29;;;;;;;4.07;3.03;;;16.00;12.60;;;;;;4973776;28;20201;-70
2023/07/27 05:51:54;;;;;;;3.97;2.70;;;16.20;11.40;;;;;;4973165;28;20524;-70
2023/07/27 05:54:20;;;;;;;4.53;2.73;;;16.40;11.30;;;;;;4973853;28;20216;-70
2023/07/27 05:56:46;;;;;;;4.93;2.47;;;16.50;11.80;;;;;;4973672;28;20180;-70
2023/07/27 05:59:11;;;;;;;3.90;2.70;;;16.50;11.50;;;;;;4958355;28;20944;-70
2023/07/27 06:01:37;;;;;;;5.20;3.20;;;16.50;11.30;;;;;;4934796;29;20213;-70
2023/07/27 06:04:03;;;;;;;3.70;3.30;;;16.60;11.60;;;;;;4935103;29;20187;-70
2023/07/27 06:06:28;;;;;;;6.07;3.40;;;16.70;11.40;;;;;;4935112;29;20182;-70
2023/07/27 06:08:54;;;;;;;9.30;4.20;;;16.70;11.70;;;;;;4934939;29;20653;-70
2023/07/27 06:11:19;;;;;;;3.50;2.30;;;16.80;12.10;;;;;;4934955;29;20198;-70
2023/07/27 06:13:46;;;;;;;3.60;2.97;;;17.00;13.00;;;;;;4934833;29;20178;-70
2023/07/27 06:16:12;;;;;;;4.77;2.97;;;17.20;12.00;;;;;;4934879;29;20235;-70
2023/07/27 06:18:37;;;;;;;4.10;2.77;;;17.40;12.40;;;;;;4934931;29;20411;-70
2023/07/27 06:21:03;;;;;;;2.33;2.07;;;17.80;12.30;;;;;;4934719;29;20174;-70
2023/07/27 06:23:28;;;;;;;4.83;2.63;;;18.20;10.90;;;;;;4934612;29;20187;-70
2023/07/27 06:25:54;;;;;;;6.83;2.87;;;18.50;9.00;;;;;;4934642;29;20187;-69
2023/07/27 06:28:19;;;;;;;4.50;2.83;;;18.80;8.40;;;;;;4934785;29;20175;-71
2023/07/27 06:30:45;;;;;;;3.97;3.27;;;19.20;8.00;;;;;;4933472;29;20628;-71
2023/07/27 06:33:11;;;;;;;2.60;2.00;;;19.40;6.80;;;;;;4934380;29;20191;-71
2023/07/27 06:35:37;;;;;;;2.83;1.97;;;19.70;7.20;;;;;;4934505;29;20419;-70
2023/07/27 06:38:02;;;;;;;4.77;2.80;;;19.80;3.50;;;;;;4939617;29;20341;-75
2023/07/27 06:40:28;;;;;;;2.80;2.40;;;19.70;2.70;;;;;;4949504;29;20186;-70
2023/07/27 06:42:53;;;;;;;5.00;2.60;;;19.60;2.70;;;;;;4948440;29;20206;-70
2023/07/27 06:45:20;;;;;;;6.60;4.20;;;19.50;4.20;;;;;;4949620;29;20194;-70
2023/07/27 06:47:46;;;;;;;12.10;5.50;;;19.60;4.80;;;;;;4948849;29;20189;-71
2023/07/27 06:50:11;;;;;;;6.73;3.70;;;19.80;5.80;;;;;;4948829;28;20461;-70
2023/07/27 06:52:37;;;;;;;14.67;4.83;;;20.30;3.90;;;;;;4949253;29;20198;-71
2023/07/27 06:55:03;;;;;;;9.53;3.23;;;20.70;3.50;;;;;;4948994;29;20194;-70
2023/07/27 06:57:29;;;;;;;3.90;2.13;;;20.90;2.40;;;;;;4949022;28;20186;-71
2023/07/27 06:59:55;;;;;;;4.60;3.30;;;21.10;1.30;;;;;;4933282;29;21039;-71
2023/07/27 07:02:20;;;;;;;20.70;7.23;;;21.20;1.00;;;;;;4929238;29;20305;-71
2023/07/27 07:04:46;;;;;;;10.27;4.80;;;21.30;1.00;;;;;;4929762;29;20544;-71
2023/07/27 07:07:13;;;;;;;3.07;2.77;;;21.00;1.00;;;;;;4930420;29;20186;-71
2023/07/27 07:09:38;;;;;;;3.40;2.77;;;20.60;1.00;;;;;;4929424;29;20228;-70
2023/07/27 07:12:05;;;;;;;3.83;3.10;;;20.60;1.00;;;;;;4929713;29;20835;-71
2023/07/27 07:14:31;;;;;;;9.27;4.47;;;20.60;1.00;;;;;;4930282;29;20274;-69
2023/07/27 07:16:57;;;;;;;4.37;2.90;;;20.50;1.00;;;;;;4938470;29;20940;-70
2023/07/27 07:19:23;;;;;;;3.43;3.13;;;20.50;1.00;;;;;;4948769;28;20936;-70
2023/07/27 07:21:48;;;;;;;7.37;3.87;;;20.50;1.00;;;;;;4949162;29;20549;-70
2023/07/27 07:24:14;;;;;;;15.50;5.20;;;20.30;1.40;;;;;;4948296;29;20186;-70
2023/07/27 07:26:40;;;;;;;3.60;3.30;;;20.30;1.50;;;;;;4948363;29;20192;-70
2023/07/27 07:29:05;;;;;;;3.00;2.73;;;20.30;1.00;;;;;;4948518;29;20250;-69
2023/07/27 07:31:31;;;;;;;3.70;2.93;;;20.30;1.60;;;;;;4947747;29;20293;-69
2023/07/27 07:33:56;;;;;;;4.20;3.20;;;20.20;1.00;;;;;;4942507;29;20638;-69
2023/07/27 07:36:24;;;;;;;3.67;2.77;;;20.50;1.00;;;;;;4962796;28;20830;-69
2023/07/27 07:38:49;;;;;;;5.73;3.00;;;20.80;1.00;;;;;;4956619;28;20178;-69
2023/07/27 07:41:15;;;;;;;3.63;2.73;;;21.10;1.00;;;;;;4951578;28;20483;-69
2023/07/27 07:43:40;;;;;;;4.23;3.07;;;21.20;1.00;;;;;;4952025;29;20205;-69
2023/07/27 07:46:13;;;;;;;4.20;2.80;;;21.40;1.00;;;;;;4951317;29;20190;-69
2023/07/27 07:48:39;;;;;;;6.57;3.83;;;21.50;1.00;;;;;;4952089;28;20206;-69
2023/07/27 07:51:15;;;;;;;5.47;4.27;;;21.50;1.00;;;;;;4952659;29;21277;-69
2023/07/27 07:53:41;;;;;;;3.33;3.03;;;21.40;1.00;;;;;;4952320;28;20512;-69
2023/07/27 07:56:16;;;;;;;3.40;2.47;;;21.40;1.00;;;;;;4951965;28;20990;-69
2023/07/27 07:58:44;;;;;;;3.43;3.10;;;21.40;1.00;;;;;;4954074;28;20430;-69
2023/07/27 08:01:10;;;;;;;3.17;2.60;;;21.40;1.00;;;;;;4956786;28;20480;-66
2023/07/27 08:03:35;;;;;;;4.50;3.43;;;21.30;1.00;;;;;;4956386;29;20413;-67
2023/07/27 08:06:01;;;;;;;5.60;2.90;;;21.00;1.00;;;;;;4956504;29;20206;-66
2023/07/27 08:08:27;;;;;;;4.30;3.20;;;21.00;1.00;;;;;;4955968;28;20240;-67
2023/07/27 08:10:53;;;;;;;3.80;3.00;;;20.90;1.00;;;;;;4955869;28;20667;-67
2023/07/27 08:13:18;;;;;;;2.93;2.57;;;20.90;1.00;;;;;;4955514;29;20248;-67
2023/07/27 08:15:54;;;;;;;4.20;3.80;;;21.00;1.00;;;;;;4952277;29;20221;-67
2023/07/27 08:18:19;;;;;;;3.60;3.17;;;21.00;1.00;;;;;;4955686;28;20694;-72
2023/07/27 08:20:57;;;;;;;2.90;2.57;;;21.10;1.00;;;;;;4955867;29;20483;-67
2023/07/27 08:23:22;;;;;;;3.03;2.63;;;21.20;1.00;;;;;;4939124;28;20198;-68
2023/07/27 08:25:48;;;;;;;3.37;2.90;;;21.50;1.00;;;;;;4940319;29;20922;-68
2023/07/27 08:28:14;;;;;;;2.73;2.30;;;21.70;1.00;;;;;;4955750;29;20253;-67
2023/07/27 08:30:41;;;;;;;3.00;2.50;;;22.00;1.00;;;;;;4955706;29;20221;-68
2023/07/27 08:33:08;;;;;;;3.30;2.90;;;22.00;1.00;;;;;;4950844;28;20542;-68
2023/07/27 08:35:33;;;;;;;3.03;2.70;;;21.80;1.00;;;;;;4940754;29;20437;-68
2023/07/27 08:37:59;;;;;;;3.03;2.47;;;21.60;1.00;;;;;;4936459;29;20422;-68
2023/07/27 08:40:24;;;;;;;3.33;2.60;;;21.50;1.00;;;;;;4936533;29;20206;-68
2023/07/27 08:42:50;;;;;;;4.67;2.80;;;21.30;1.00;;;;;;4936058;29;20250;-67
2023/07/27 08:45:22;;;;;;;3.63;3.00;;;21.50;1.00;;;;;;4936799;29;20186;-67
2023/07/27 08:47:52;;;;;;;7.23;2.80;;;21.70;1.00;;;;;;4936725;29;20414;-67
2023/07/27 08:50:19;;;;;;;4.10;3.17;;;21.90;1.00;;;;;;4936319;29;20466;-67
2023/07/27 08:52:45;;;;;;;3.30;2.97;;;22.10;1.00;;;;;;4934951;29;20489;-67
2023/07/27 08:55:11;;;;;;;3.73;3.23;;;22.60;1.00;;;;;;4936360;29;20414;-67
2023/07/27 08:57:37;;;;;;;3.47;3.27;;;22.80;1.00;;;;;;4936227;29;20178;-68
2023/07/27 09:00:03;;;;;;;4.70;2.97;;;22.80;1.00;;;;;;4936061;29;20183;-68
2023/07/27 09:02:28;;;;;;;3.47;3.17;;;22.90;1.00;;;;;;4935819;29;20436;-68
2023/07/27 09:04:54;;;;;;;3.33;3.03;;;22.60;1.00;;;;;;4936092;29;20414;-68
2023/07/27 09:07:19;;;;;;;3.93;3.40;;;22.30;1.00;;;;;;4935860;29;20708;-68
2023/07/27 09:09:52;;;;;;;5.53;3.13;;;22.10;1.00;;;;;;4935919;29;20688;-68
2023/07/27 09:12:21;;;;;;;3.20;2.90;;;22.00;1.00;;;;;;4935530;29;20726;-68
2023/07/27 09:14:47;;;;;;;4.73;3.50;;;22.10;1.00;;;;;;4936159;29;20414;-68
2023/07/27 09:17:13;;;;;;;2.53;2.20;;;22.10;1.00;;;;;;4935743;29;20411;-67
2023/07/27 09:19:41;;;;;;;2.90;2.60;;;22.20;1.00;;;;;;4935780;29;20563;-68
2023/07/27 09:22:07;;;;;;;2.90;2.60;;;22.50;1.00;;;;;;4935523;29;20988;-68
2023/07/27 09:24:34;;;;;;;4.03;2.93;;;22.40;1.00;;;;;;4935942;29;20418;-68
2023/07/27 09:27:01;;;;;;;4.80;2.90;;;22.80;1.00;;;;;;4935879;29;20190;-68
2023/07/27 09:29:27;;;;;;;5.33;3.67;;;23.40;1.00;;;;;;4935755;29;20465;-68
2023/07/27 09:31:58;;;;;;;4.33;3.37;;;24.00;1.00;;;;;;4935087;29;20474;-68
2023/07/27 09:34:28;;;;;;;3.27;2.60;;;24.00;1.00;;;;;;4935842;29;20442;-68
2023/07/27 09:36:56;;;;;;;3.80;3.50;;;23.80;1.00;;;;;;4936287;29;20450;-68
2023/07/27 09:39:24;;;;;;;5.47;4.10;;;23.80;1.00;;;;;;4935749;29;20422;-68
2023/07/27 09:41:50;;;;;;;8.37;4.27;;;23.60;1.00;;;;;;4935315;29;20434;-68
2023/07/27 09:44:17;;;;;;;4.23;3.63;;;23.30;1.00;;;;;;4935653;29;20423;-68
2023/07/27 09:46:44;;;;;;;8.47;5.70;;;23.30;1.00;;;;;;4935559;29;20422;-67
2023/07/27 09:49:11;;;;;;;4.43;4.03;;;23.00;1.00;;;;;;4935293;29;20423;-68
2023/07/27 09:51:37;;;;;;;3.80;3.50;;;22.70;1.00;;;;;;4935181;29;20748;-68
2023/07/27 09:54:04;;;;;;;3.63;3.33;;;22.60;1.00;;;;;;4935520;29;20746;-68
2023/07/27 09:56:34;;;;;;;4.73;3.63;;;22.70;1.00;;;;;;4935392;29;20179;-68
2023/07/27 09:59:00;;;;;;;3.40;3.10;;;22.60;1.00;;;;;;4935429;29;20494;-68
2023/07/27 10:01:26;;;;;;;3.20;2.87;;;22.40;1.00;;;;;;4934777;29;20566;-68
2023/07/27 10:03:57;;;;;;;7.50;3.33;;;22.10;1.00;;;;;;4934624;29;20936;-68
2023/07/27 10:06:27;;;;;;;6.10;3.47;;;22.20;1.00;;;;;;4934887;29;20422;-68
2023/07/27 10:08:53;;;;;;;14.47;4.90;;;22.30;1.00;;;;;;4935032;29;20417;-67
2023/07/27 10:11:50;;;;;;;5.83;2.80;;;22.40;1.00;;;;;;4934804;29;20466;-69
2023/07/27 10:14:17;;;;;;;10.80;3.93;;;22.40;1.00;;;;;;4934875;29;20422;-68
2023/07/27 10:17:08;;;;;;;6.43;3.20;;;22.90;1.00;;;;;;4935123;29;20414;-68
2023/07/27 10:19:44;;;;;;;7.00;4.30;;;23.10;1.00;;;;;;4934815;29;20423;-68
2023/07/27 10:22:15;;;;;;;3.63;2.37;;;23.30;1.00;;;;;;4939256;29;20461;-68
2023/07/27 10:24:48;;;;;;;17.73;5.73;;;23.40;1.00;;;;;;4944482;28;20513;-68
2023/07/27 10:27:14;;;;;;;7.70;3.80;;;23.20;1.00;;;;;;4934932;29;20425;-68
2023/07/27 10:29:45;;;;;;;5.73;3.17;;;23.20;1.00;;;;;;4952929;29;20465;-68
2023/07/27 10:32:12;;;;;;;248.30;51.27;;;23.40;1.00;;;;;;4952882;28;20449;-67
2023/07/27 10:34:38;;;;;;;11.33;3.70;;;23.20;1.00;;;;;;4953210;28;20916;-68
2023/07/27 10:37:12;;;;;;;10.33;4.60;;;23.00;1.00;;;;;;4953637;28;20414;-68
2023/07/27 10:39:51;;;;;;;11.43;5.27;;;22.90;1.00;;;;;;4953638;28;20485;-68
2023/07/27 10:42:26;;;;;;;4.37;3.40;;;22.90;1.00;;;;;;4934241;29;20888;-68
2023/07/27 10:44:56;;;;;;;6.47;3.00;;;22.90;1.00;;;;;;4934469;29;20410;-68
2023/07/27 10:47:26;;;;;;;12.63;4.93;;;23.10;1.00;;;;;;4944235;29;20441;-68
2023/07/27 10:49:57;;;;;;;10.80;4.57;;;23.40;1.00;;;;;;4953891;29;20465;-68
2023/07/27 10:52:27;;;;;;;4.27;2.83;;;23.50;1.00;;;;;;4953591;28;20436;-68
2023/07/27 10:54:55;;;;;;;3.90;3.23;;;23.70;1.00;;;;;;4953933;29;20416;-68
2023/07/27 10:57:21;;;;;;;2.87;2.57;;;23.90;1.00;;;;;;4954078;28;20421;-68
2023/07/27 10:59:48;;;;;;;3.73;3.43;;;23.80;1.00;;;;;;4953390;28;20448;-68
2023/07/27 11:02:29;;;;;;;3.70;3.20;;;24.10;1.00;;;;;;4952871;29;20260;-68
2023/07/27 11:04:57;;;;;;;3.10;2.80;;;24.20;1.00;;;;;;4953584;28;20429;-68
2023/07/27 11:07:40;;;;;;;4.10;3.47;;;24.70;1.00;;;;;;4953319;29;20801;-68
2023/07/27 11:10:12;;;;;;;3.23;2.93;;;24.90;1.00;;;;;;4953126;29;20468;-69
2023/07/27 11:12:49;;;;;;;4.20;3.30;;;25.80;1.00;;;;;;4952863;28;20508;-68
2023/07/27 11:15:25;;;;;;;5.03;4.63;;;26.40;1.00;;;;;;4952701;28;20418;-68
2023/07/27 11:17:53;;;;;;;3.73;3.43;;;26.40;1.00;;;;;;4939542;29;20912;-68
2023/07/27 11:20:21;;;;;;;3.70;2.83;;;26.30;1.00;;;;;;4934169;29;20429;-68
2023/07/27 11:22:48;;;;;;;3.63;3.33;;;25.80;1.00;;;;;;4933641;29;20438;-68
2023/07/27 11:25:14;;;;;;;4.00;3.10;;;25.60;1.00;;;;;;4948956;29;20419;-68
2023/07/27 11:27:40;;;;;;;5.20;3.70;;;25.80;1.00;;;;;;4934059;29;20415;-68
2023/07/27 11:30:09;;;;;;;3.93;3.40;;;26.30;1.00;;;;;;4937073;29;20296;-68
2023/07/27 11:32:35;;;;;;;3.20;2.90;;;26.30;1.00;;;;;;4952738;28;20185;-68
2023/07/27 11:35:00;;;;;;;3.17;2.97;;;26.50;1.00;;;;;;4953068;29;20445;-68
2023/07/27 11:37:29;;;;;;;3.13;2.90;;;26.30;1.00;;;;;;4952899;29;20182;-68
2023/07/27 11:39:55;;;;;;;3.23;2.93;;;25.50;1.00;;;;;;4952988;28;20209;-68
2023/07/27 11:42:28;;;;;;;6.43;2.93;;;25.60;1.00;;;;;;4952772;29;20445;-68
2023/07/27 11:44:56;;;;;;;3.73;3.43;;;25.80;1.00;;;;;;4952898;28;20437;-68
2023/07/27 11:47:22;;;;;;;3.20;2.90;;;25.90;1.00;;;;;;4952998;28;20474;-69
2023/07/27 11:49:50;;;;;;;4.43;3.63;;;25.30;1.00;;;;;;4953123;28;20461;-69
2023/07/27 11:52:17;;;;;;;4.40;3.20;;;24.90;1.00;;;;;;4952592;29;20434;-68
2023/07/27 11:54:43;;;;;;;17.97;4.33;;;24.60;1.00;;;;;;4952909;29;20505;-68
2023/07/27 11:57:08;;;;;;;4.10;2.87;;;24.80;1.00;;;;;;4952905;29;21006;-68
2023/07/27 11:59:34;;;;;;;2.60;2.40;;;24.70;1.00;;;;;;4952563;29;20548;-68
2023/07/27 12:02:00;;;;;;;3.47;2.87;;;24.80;1.00;;;;;;4952656;28;20194;-68
2023/07/27 12:04:26;;;;;;;3.00;2.80;;;25.20;1.00;;;;;;4952910;29;20472;-68
2023/07/27 12:06:54;;;;;;;3.37;2.80;;;25.10;1.00;;;;;;4953273;29;20186;-68
2023/07/27 12:09:20;;;;;;;2.83;2.63;;;24.90;1.00;;;;;;4952819;28;20418;-69
2023/07/27 12:11:46;;;;;;;4.90;3.43;;;24.90;1.00;;;;;;4952463;29;20476;-69
2023/07/27 12:14:12;;;;;;;3.80;3.37;;;24.80;1.00;;;;;;4952543;28;20257;-68
2023/07/27 12:16:40;;;;;;;3.00;2.70;;;24.50;1.00;;;;;;4952606;29;20857;-68
2023/07/27 12:19:07;;;;;;;3.13;2.77;;;24.30;1.00;;;;;;4952864;28;20174;-68
2023/07/27 12:21:34;;;;;;;2.40;2.20;;;24.20;1.00;;;;;;4952341;28;20437;-68
2023/07/27 12:24:01;;;;;;;2.90;2.60;;;23.80;1.00;;;;;;4953043;28;20409;-68
2023/07/27 12:26:27;;;;;;;3.20;2.43;;;23.90;1.00;;;;;;4953912;28;20417;-70
2023/07/27 12:28:52;;;;;;;2.53;2.13;;;24.00;1.00;;;;;;4955807;28;20865;-68
2023/07/27 12:31:18;;;;;;;2.43;2.00;;;23.80;1.00;;;;;;4955370;29;20257;-69
2023/07/27 12:33:43;;;;;;;6.20;2.70;;;23.30;1.00;;;;;;4955641;29;20182;-69
2023/07/27 12:36:09;;;;;;;5.30;2.60;;;23.00;1.00;;;;;;4956229;29;20178;-67
2023/07/27 12:38:35;;;;;;;6.00;2.07;;;22.90;1.00;;;;;;4956508;28;20174;-67
2023/07/27 12:41:01;;;;;;;3.13;1.97;;;22.90;1.00;;;;;;4955952;28;20421;-67
2023/07/27 12:43:26;;;;;;;3.40;2.30;;;22.40;1.00;;;;;;4955410;29;20457;-68
2023/07/27 12:45:52;;;;;;;3.07;1.93;;;22.60;1.00;;;;;;4955601;29;20190;-69
2023/07/27 12:48:18;;;;;;;3.30;2.57;;;22.60;1.00;;;;;;4955781;29;20178;-67
2023/07/27 12:50:44;;;;;;;7.10;1.67;;;22.70;2.10;;;;;;4956069;28;20213;-69